Time;durP1;ratioP1;P1;durP2;ratioP2;P2;SDS_P1;SDS_P2;PMS_P1;PMS_P2;Temp;Humidity;BMP_temperature;BMP_pressure;BME280_temperature;BME280_humidity;BME280_pressure;Samples;Min_cycle;Max_cycle;Signal;HPM_P1;HPM_P2
2023/08/17 00:00:34;;;;;;;12.57;6.78;;;28.80;45.70;;;;;;5050547;28;20056;-72
2023/08/17 00:03:00;;;;;;;7.53;6.57;;;28.80;45.80;;;;;;5053076;28;20051;-71
2023/08/17 00:05:26;;;;;;;12.70;6.43;;;28.70;45.80;;;;;;5051728;28;20115;-72
2023/08/17 00:07:52;;;;;;;8.90;6.40;;;28.70;45.90;;;;;;5069203;28;20048;-72
2023/08/17 00:10:18;;;;;;;11.40;6.40;;;28.80;45.80;;;;;;5069445;28;20058;-72
2023/08/17 00:12:44;;;;;;;9.75;6.43;;;28.70;45.90;;;;;;5061543;28;20112;-71
2023/08/17 00:15:10;;;;;;;9.68;6.72;;;28.60;45.90;;;;;;5032390;28;20037;-72
2023/08/17 00:17:36;;;;;;;10.98;6.85;;;28.70;45.90;;;;;;5060972;28;20127;-72
2023/08/17 00:20:04;;;;;;;10.35;7.28;;;28.90;45.90;;;;;;5054831;28;20111;-72
2023/08/17 00:22:31;;;;;;;14.93;7.05;;;28.70;46.00;;;;;;5070926;28;20035;-72
2023/08/17 00:24:57;;;;;;;10.68;6.82;;;28.80;46.00;;;;;;5072267;28;20625;-71
2023/08/17 00:27:23;;;;;;;17.20;7.68;;;28.80;46.00;;;;;;5059983;28;20036;-71
2023/08/17 00:29:49;;;;;;;12.50;7.55;;;28.80;46.10;;;;;;5032538;28;20091;-72
2023/08/17 00:32:15;;;;;;;14.18;7.57;;;28.60;46.20;;;;;;5071384;28;20024;-72
2023/08/17 00:34:41;;;;;;;9.63;6.28;;;28.70;46.30;;;;;;5072533;28;20048;-72
2023/08/17 00:37:07;;;;;;;9.57;6.57;;;28.70;46.40;;;;;;5067365;28;20033;-72
2023/08/17 00:39:33;;;;;;;16.85;7.55;;;28.80;46.40;;;;;;5042017;28;20556;-71
2023/08/17 00:42:00;;;;;;;10.57;6.25;;;28.70;46.40;;;;;;5033943;28;20823;-72
2023/08/17 00:44:26;;;;;;;7.45;6.53;;;28.70;46.50;;;;;;5070917;28;20446;-72
2023/08/17 00:46:52;;;;;;;9.73;6.53;;;28.70;46.60;;;;;;5068311;28;20177;-71
2023/08/17 00:49:18;;;;;;;10.65;6.35;;;28.60;46.70;;;;;;5070706;28;20068;-72
2023/08/17 00:51:44;;;;;;;16.42;6.45;;;28.70;46.70;;;;;;5072068;28;20060;-72
2023/08/17 00:54:11;;;;;;;11.73;6.20;;;28.60;46.70;;;;;;5067466;28;21617;-71
2023/08/17 00:56:38;;;;;;;11.52;6.00;;;28.60;46.90;;;;;;5059622;28;20080;-73
2023/08/17 00:59:04;;;;;;;7.80;6.00;;;28.60;46.80;;;;;;5031838;28;20124;-73
2023/08/17 01:01:30;;;;;;;10.68;6.68;;;28.70;46.90;;;;;;5030858;28;20045;-73
2023/08/17 01:03:56;;;;;;;9.13;5.97;;;28.60;47.00;;;;;;5031910;28;20112;-73
2023/08/17 01:06:22;;;;;;;11.45;5.90;;;28.70;46.90;;;;;;5068643;28;20115;-73
2023/08/17 01:08:48;;;;;;;7.60;6.25;;;28.60;46.80;;;;;;5051078;28;20045;-73
2023/08/17 01:11:31;;;;;;;13.50;6.55;;;28.60;46.80;;;;;;5043072;28;20060;-73
2023/08/17 01:14:00;;;;;;;11.38;6.63;;;28.50;46.80;;;;;;5053215;28;20107;-71
2023/08/17 01:17:01;;;;;;;8.02;6.85;;;28.60;46.80;;;;;;5052417;28;20056;-73
2023/08/17 01:19:28;;;;;;;9.80;7.07;;;28.60;46.80;;;;;;5032272;28;20052;-73
2023/08/17 01:22:02;;;;;;;11.35;7.22;;;28.60;46.90;;;;;;5049182;28;20041;-73
2023/08/17 01:24:29;;;;;;;11.95;7.20;;;28.60;46.90;;;;;;5031251;28;20136;-73
2023/08/17 01:26:55;;;;;;;13.20;7.00;;;28.70;46.90;;;;;;5032205;28;20033;-73
2023/08/17 01:29:21;;;;;;;7.57;6.78;;;28.60;47.00;;;;;;5046325;28;20044;-73
2023/08/17 01:31:55;;;;;;;10.63;7.35;;;28.60;47.00;;;;;;5048805;28;20055;-73
2023/08/17 01:34:25;;;;;;;10.90;6.45;;;28.60;47.00;;;;;;5037550;28;20041;-73
2023/08/17 01:36:57;;;;;;;9.30;6.60;;;28.70;47.10;;;;;;5032162;28;20045;-73
2023/08/17 01:39:30;;;;;;;13.48;6.82;;;28.60;47.10;;;;;;5037884;28;20069;-73
2023/08/17 01:42:00;;;;;;;10.00;6.65;;;28.70;47.20;;;;;;5045407;28;20489;-73
2023/08/17 01:44:27;;;;;;;14.07;6.60;;;28.60;47.40;;;;;;5028679;28;20029;-73
2023/08/17 01:46:53;;;;;;;12.57;7.53;;;28.50;47.50;;;;;;5016437;28;20064;-73
2023/08/17 01:49:22;;;;;;;13.43;6.70;;;28.70;47.60;;;;;;5039706;28;20462;-73
2023/08/17 01:51:48;;;;;;;8.93;5.90;;;28.60;47.70;;;;;;5011776;28;20767;-73
2023/08/17 01:54:14;;;;;;;10.38;7.35;;;28.60;47.80;;;;;;5026780;28;20048;-73
2023/08/17 01:56:40;;;;;;;7.63;6.78;;;28.60;47.90;;;;;;5036361;28;20063;-73
2023/08/17 01:59:06;;;;;;;10.75;6.97;;;28.60;47.90;;;;;;5069917;28;20048;-73
2023/08/17 02:01:32;;;;;;;7.82;6.53;;;28.60;47.80;;;;;;5067252;28;20028;-72
2023/08/17 02:04:02;;;;;;;7.47;5.68;;;28.50;47.90;;;;;;5052931;28;20038;-73
2023/08/17 02:06:29;;;;;;;11.88;6.18;;;28.60;47.80;;;;;;5032341;28;20096;-73
2023/08/17 02:08:55;;;;;;;10.45;6.60;;;28.50;47.80;;;;;;5069667;28;20075;-73
2023/08/17 02:11:23;;;;;;;10.48;6.28;;;28.50;47.80;;;;;;5036083;28;20065;-73
2023/08/17 02:13:50;;;;;;;10.98;6.40;;;28.50;47.90;;;;;;5040583;28;20037;-73
2023/08/17 02:16:16;;;;;;;11.55;6.35;;;28.60;47.90;;;;;;5060786;28;20098;-73
2023/08/17 02:18:43;;;;;;;10.73;6.75;;;28.40;48.00;;;;;;5067727;28;20040;-73
2023/08/17 02:21:09;;;;;;;12.18;6.75;;;28.50;48.00;;;;;;5055246;28;20522;-73
2023/08/17 02:23:35;;;;;;;10.80;7.10;;;28.60;48.00;;;;;;5054669;28;20107;-73
2023/08/17 02:26:01;;;;;;;11.00;6.95;;;28.60;48.10;;;;;;5041296;28;20523;-73
2023/08/17 02:28:27;;;;;;;9.02;6.65;;;28.50;48.10;;;;;;5067128;28;20037;-73
2023/08/17 02:30:57;;;;;;;10.35;7.55;;;28.40;48.20;;;;;;5060085;28;20499;-73
2023/08/17 02:33:24;;;;;;;11.00;6.65;;;28.50;48.20;;;;;;5034811;28;20033;-73
2023/08/17 02:35:51;;;;;;;11.70;7.78;;;28.50;48.30;;;;;;5037062;28;20442;-73
2023/08/17 02:38:17;;;;;;;12.68;7.57;;;28.40;48.30;;;;;;5048599;28;20087;-73
2023/08/17 02:40:43;;;;;;;12.23;6.93;;;28.50;48.40;;;;;;5034809;28;20477;-72
2023/08/17 02:43:09;;;;;;;13.85;8.13;;;28.50;48.40;;;;;;5034770;28;20044;-73
2023/08/17 02:45:35;;;;;;;15.23;7.55;;;28.50;48.50;;;;;;5034491;28;20041;-73
2023/08/17 02:48:01;;;;;;;9.20;7.15;;;28.50;48.50;;;;;;5055918;28;20049;-73
2023/08/17 02:50:27;;;;;;;11.25;7.20;;;28.40;48.60;;;;;;5074291;28;20475;-73
2023/08/17 02:52:53;;;;;;;8.90;7.60;;;28.60;48.60;;;;;;5073185;28;20024;-73
2023/08/17 02:55:19;;;;;;;14.25;7.85;;;28.40;48.70;;;;;;5058089;28;20032;-73
2023/08/17 02:57:46;;;;;;;10.50;7.15;;;28.50;48.70;;;;;;5051592;28;20058;-73
2023/08/17 03:00:13;;;;;;;12.65;7.88;;;28.50;48.80;;;;;;5072890;28;20317;-73
2023/08/17 03:02:39;;;;;;;13.30;7.07;;;28.40;48.80;;;;;;5071666;28;20102;-73
2023/08/17 03:05:05;;;;;;;9.65;7.22;;;28.40;48.80;;;;;;5065120;28;20016;-73
2023/08/17 03:07:31;;;;;;;8.13;7.05;;;28.30;48.80;;;;;;5052592;28;20112;-73
2023/08/17 03:09:57;;;;;;;11.65;8.18;;;28.30;48.80;;;;;;5070498;28;20111;-73
2023/08/17 03:12:23;;;;;;;10.07;7.40;;;28.40;48.90;;;;;;5033563;28;20457;-73
2023/08/17 03:14:49;;;;;;;9.65;7.95;;;28.50;48.90;;;;;;5038106;28;20434;-72
2023/08/17 03:17:15;;;;;;;11.00;7.47;;;28.40;49.00;;;;;;5038467;28;20056;-73
2023/08/17 03:19:41;;;;;;;13.32;7.97;;;28.40;49.00;;;;;;5073791;28;20464;-73
2023/08/17 03:22:07;;;;;;;9.82;7.25;;;28.30;49.00;;;;;;5070658;28;20033;-73
2023/08/17 03:24:33;;;;;;;11.07;6.85;;;28.50;49.10;;;;;;5072379;28;20036;-73
2023/08/17 03:27:02;;;;;;;9.13;7.15;;;28.50;49.10;;;;;;5042263;28;20092;-73
2023/08/17 03:29:28;;;;;;;8.80;7.05;;;28.50;49.10;;;;;;5063454;28;20546;-73
2023/08/17 03:31:55;;;;;;;10.18;7.53;;;28.50;49.10;;;;;;5033997;28;20471;-73
2023/08/17 03:34:21;;;;;;;11.55;7.57;;;28.50;49.10;;;;;;5060902;28;20115;-73
2023/08/17 03:36:48;;;;;;;10.95;7.60;;;28.60;49.10;;;;;;5069771;28;20031;-73
2023/08/17 03:39:14;;;;;;;12.23;7.50;;;28.50;49.10;;;;;;5070823;28;20052;-73
2023/08/17 03:41:41;;;;;;;12.30;7.53;;;28.30;49.10;;;;;;5050337;28;20033;-73
2023/08/17 03:44:09;;;;;;;11.50;7.03;;;28.30;49.20;;;;;;5049819;28;20047;-73
2023/08/17 03:46:35;;;;;;;11.00;6.85;;;28.30;49.20;;;;;;5045628;28;20063;-73
2023/08/17 03:49:01;;;;;;;10.77;7.35;;;28.40;49.30;;;;;;5049521;28;20391;-73
2023/08/17 03:51:27;;;;;;;14.30;8.55;;;28.40;49.30;;;;;;5071859;28;20041;-73
2023/08/17 03:53:53;;;;;;;9.18;7.35;;;28.40;49.30;;;;;;5070955;28;20085;-73
2023/08/17 03:56:20;;;;;;;10.25;7.72;;;28.30;49.40;;;;;;5051521;28;20095;-73
2023/08/17 03:58:45;;;;;;;11.30;7.80;;;28.30;49.40;;;;;;5059737;28;20048;-73
2023/08/17 04:01:13;;;;;;;11.93;7.57;;;28.40;49.40;;;;;;5053370;28;20038;-73
2023/08/17 04:03:41;;;;;;;12.15;7.55;;;28.30;49.60;;;;;;5028340;28;20120;-73
2023/08/17 04:06:10;;;;;;;14.73;7.93;;;28.40;49.60;;;;;;5031899;28;20664;-73
2023/08/17 04:08:37;;;;;;;10.40;7.65;;;28.30;49.60;;;;;;5055321;28;20048;-73
2023/08/17 04:11:04;;;;;;;10.18;7.55;;;28.30;49.70;;;;;;5034647;28;20037;-73
2023/08/17 04:13:31;;;;;;;12.48;7.30;;;28.10;49.70;;;;;;5032548;28;20029;-73
2023/08/17 04:15:57;;;;;;;14.75;9.05;;;28.30;49.80;;;;;;5031254;28;20040;-73
2023/08/17 04:18:23;;;;;;;11.88;8.23;;;28.20;49.80;;;;;;5048249;28;20100;-73
2023/08/17 04:20:50;;;;;;;12.07;7.55;;;28.20;49.90;;;;;;5033662;28;20065;-73
2023/08/17 04:23:17;;;;;;;15.15;9.00;;;28.10;50.00;;;;;;5031008;28;20048;-73
2023/08/17 04:25:44;;;;;;;12.55;8.23;;;28.20;50.00;;;;;;5052444;28;20424;-73
2023/08/17 04:28:10;;;;;;;16.83;8.50;;;28.20;50.10;;;;;;5056536;28;20126;-73
2023/08/17 04:30:37;;;;;;;13.50;9.40;;;28.30;50.00;;;;;;5044822;28;20736;-73
2023/08/17 04:33:07;;;;;;;13.68;8.82;;;28.30;50.10;;;;;;5040739;28;20032;-73
2023/08/17 04:35:33;;;;;;;13.77;8.90;;;28.20;50.10;;;;;;5054277;28;20126;-73
2023/08/17 04:38:00;;;;;;;13.13;9.13;;;28.30;50.10;;;;;;5062685;28;20041;-73
2023/08/17 04:40:27;;;;;;;12.65;8.73;;;28.20;50.20;;;;;;5030180;28;20041;-73
2023/08/17 04:42:54;;;;;;;8.40;7.07;;;28.40;50.20;;;;;;5035772;28;20055;-73
2023/08/17 04:45:22;;;;;;;6.07;5.47;;;28.40;50.20;;;;;;5028941;28;20490;-73
2023/08/17 04:47:48;;;;;;;19.70;9.10;;;28.30;50.20;;;;;;5062904;28;20528;-73
2023/08/17 04:50:16;;;;;;;18.15;10.05;;;28.20;50.20;;;;;;5022795;28;20031;-73
2023/08/17 04:52:45;;;;;;;17.48;9.90;;;28.50;50.20;;;;;;5032791;28;20057;-73
2023/08/17 04:55:12;;;;;;;12.13;8.63;;;28.60;50.30;;;;;;5032945;28;20049;-73
2023/08/17 04:57:38;;;;;;;12.07;7.78;;;28.40;50.20;;;;;;5001492;28;20040;-73
2023/08/17 05:00:09;;;;;;;13.50;8.50;;;28.40;50.30;;;;;;5049398;28;20053;-72
2023/08/17 05:02:36;;;;;;;18.42;9.43;;;28.50;50.30;;;;;;5049011;28;20044;-73
2023/08/17 05:05:06;;;;;;;9.50;7.90;;;28.40;50.30;;;;;;5032817;28;20045;-73
2023/08/17 05:07:32;;;;;;;12.95;9.45;;;28.50;50.30;;;;;;5058279;28;20049;-72
2023/08/17 05:09:58;;;;;;;16.63;9.48;;;28.50;50.30;;;;;;5057530;28;20044;-73
2023/08/17 05:12:24;;;;;;;13.20;9.30;;;28.40;50.30;;;;;;5059069;28;20048;-73
2023/08/17 05:14:51;;;;;;;13.50;8.82;;;28.40;50.30;;;;;;5047006;28;20067;-73
2023/08/17 05:17:17;;;;;;;10.35;7.32;;;28.70;50.30;;;;;;5047977;28;20041;-73
2023/08/17 05:19:43;;;;;;;9.50;7.10;;;28.60;50.30;;;;;;5066696;28;20031;-73
2023/08/17 05:22:12;;;;;;;14.25;7.70;;;28.50;50.30;;;;;;5068801;28;20033;-72
2023/08/17 05:24:38;;;;;;;12.38;8.57;;;28.50;50.30;;;;;;5067760;28;20097;-73
2023/08/17 05:27:06;;;;;;;9.40;7.15;;;28.60;50.30;;;;;;5052466;28;20044;-73
2023/08/17 05:29:33;;;;;;;9.98;7.20;;;28.60;50.30;;;;;;5050116;28;20079;-73
2023/08/17 05:32:00;;;;;;;14.95;7.88;;;28.60;50.30;;;;;;5048928;28;20040;-73
2023/08/17 05:34:27;;;;;;;11.88;8.10;;;28.50;50.30;;;;;;5069708;28;20093;-73
2023/08/17 05:36:53;;;;;;;13.05;9.45;;;28.50;50.20;;;;;;5047842;28;20035;-72
2023/08/17 05:39:20;;;;;;;14.65;8.18;;;28.50;50.20;;;;;;5037714;28;20532;-73
2023/08/17 05:41:45;;;;;;;12.77;8.15;;;28.50;50.20;;;;;;5053451;28;20099;-73
2023/08/17 05:44:27;;;;;;;14.02;7.50;;;28.60;50.20;;;;;;5036908;28;20176;-73
2023/08/17 05:46:53;;;;;;;16.65;8.75;;;28.60;50.20;;;;;;5039142;28;20052;-71
2023/08/17 05:49:19;;;;;;;12.85;8.70;;;28.50;50.20;;;;;;5054643;28;20033;-73
2023/08/17 05:51:45;;;;;;;16.38;7.70;;;28.60;50.20;;;;;;5042271;28;20048;-72
2023/08/17 05:54:11;;;;;;;2.75;2.40;;;28.60;50.20;;;;;;5049821;28;20033;-70
2023/08/17 05:56:37;;;;;;;1.50;1.35;;;28.60;50.00;;;;;;5038317;28;20765;-70
2023/08/17 05:59:03;;;;;;;2.05;1.60;;;28.60;50.00;;;;;;5051671;28;20041;-70
2023/08/17 06:01:29;;;;;;;3.95;3.15;;;28.60;51.40;;;;;;5050845;28;20037;-69
2023/08/17 06:03:55;;;;;;;7.15;4.90;;;28.70;50.80;;;;;;5042521;28;20044;-69
2023/08/17 06:06:21;;;;;;;7.97;5.60;;;28.70;50.80;;;;;;5044452;28;20083;-70
2023/08/17 06:08:47;;;;;;;10.38;6.68;;;28.80;51.70;;;;;;5050575;28;20049;-69
2023/08/17 06:11:13;;;;;;;15.05;6.63;;;28.70;51.30;;;;;;5050810;28;20112;-69
2023/08/17 06:13:39;;;;;;;10.00;6.32;;;28.70;51.40;;;;;;5035642;28;20029;-70
2023/08/17 06:16:05;;;;;;;13.15;7.93;;;28.70;52.10;;;;;;5050764;28;20127;-69
2023/08/17 06:18:31;;;;;;;12.00;9.35;;;28.80;54.40;;;;;;5050671;28;20115;-70
2023/08/17 06:20:57;;;;;;;20.30;8.25;;;28.80;54.70;;;;;;5049556;28;20411;-70
2023/08/17 06:23:24;;;;;;;12.25;8.23;;;29.00;54.70;;;;;;5045875;28;20032;-69
2023/08/17 06:25:50;;;;;;;19.23;11.68;;;28.90;53.50;;;;;;5050776;28;20102;-69
2023/08/17 06:28:16;;;;;;;13.98;8.85;;;29.00;55.10;;;;;;5036054;28;20469;-70
2023/08/17 06:30:42;;;;;;;10.48;8.45;;;28.90;54.60;;;;;;5030690;28;20041;-72
2023/08/17 06:33:08;;;;;;;11.27;8.23;;;29.10;54.10;;;;;;5030600;28;20021;-70
2023/08/17 06:35:34;;;;;;;14.90;7.93;;;29.10;53.60;;;;;;5030507;28;20044;-70
2023/08/17 06:38:01;;;;;;;8.98;7.68;;;29.00;52.60;;;;;;5030551;28;20037;-70
2023/08/17 06:40:27;;;;;;;9.15;6.72;;;29.10;52.20;;;;;;5029431;28;20083;-70
2023/08/17 06:42:54;;;;;;;9.95;6.63;;;29.10;53.20;;;;;;5029364;28;20036;-70
2023/08/17 06:45:20;;;;;;;14.00;8.05;;;29.00;52.90;;;;;;5029368;28;20042;-69
2023/08/17 06:47:48;;;;;;;11.63;7.50;;;29.10;52.50;;;;;;5030587;28;20060;-71
2023/08/17 06:50:14;;;;;;;9.00;7.65;;;29.00;52.90;;;;;;5050630;28;20055;-70
2023/08/17 06:52:41;;;;;;;11.70;7.35;;;29.10;52.80;;;;;;5057579;28;20455;-70
2023/08/17 06:55:07;;;;;;;9.60;5.68;;;29.20;52.60;;;;;;5057478;28;20033;-70
2023/08/17 06:57:33;;;;;;;9.15;6.35;;;29.20;52.60;;;;;;5032451;28;20102;-70
2023/08/17 06:59:59;;;;;;;8.55;5.55;;;29.10;52.60;;;;;;5043786;28;20116;-70
2023/08/17 07:02:25;;;;;;;11.65;5.75;;;29.20;52.60;;;;;;5011448;28;20045;-70
2023/08/17 07:04:51;;;;;;;7.93;6.57;;;29.20;52.70;;;;;;5037753;28;20025;-71
2023/08/17 07:07:17;;;;;;;13.38;6.90;;;29.30;52.60;;;;;;5051040;28;20032;-71
2023/08/17 07:09:43;;;;;;;13.05;6.20;;;29.30;52.70;;;;;;5054313;28;20036;-71
2023/08/17 07:12:09;;;;;;;8.18;5.57;;;29.30;52.30;;;;;;5041533;28;20029;-72
2023/08/17 07:14:36;;;;;;;11.57;5.75;;;29.30;52.50;;;;;;5033765;28;20055;-71
2023/08/17 07:17:02;;;;;;;12.35;6.65;;;29.40;52.50;;;;;;5034166;28;20084;-70
2023/08/17 07:19:28;;;;;;;8.02;5.20;;;29.30;52.70;;;;;;5035942;28;20840;-70
2023/08/17 07:21:54;;;;;;;4.70;4.22;;;29.30;52.70;;;;;;5051759;28;20029;-72
2023/08/17 07:24:20;;;;;;;9.48;4.50;;;29.20;52.50;;;;;;5059177;28;20494;-70
2023/08/17 07:26:46;;;;;;;9.02;5.75;;;29.30;52.00;;;;;;5057288;28;20030;-71
2023/08/17 07:29:12;;;;;;;5.53;4.93;;;29.40;52.00;;;;;;5066691;28;20052;-70
2023/08/17 07:31:39;;;;;;;11.38;6.18;;;29.40;51.80;;;;;;5071859;28;20431;-70
2023/08/17 07:34:06;;;;;;;10.30;3.85;;;29.40;51.80;;;;;;5073443;28;20036;-71
2023/08/17 07:36:33;;;;;;;7.07;4.40;;;29.40;51.40;;;;;;5073508;28;20068;-70
2023/08/17 07:38:59;;;;;;;5.93;5.25;;;29.40;51.00;;;;;;5073659;28;20036;-70
2023/08/17 07:41:26;;;;;;;5.25;4.75;;;29.40;50.40;;;;;;5042079;28;20029;-73
2023/08/17 07:43:52;;;;;;;7.65;4.90;;;29.30;49.80;;;;;;5033402;28;20037;-72
2023/08/17 07:46:18;;;;;;;5.50;4.85;;;29.30;49.50;;;;;;5031793;28;20061;-71
2023/08/17 07:48:44;;;;;;;7.45;4.68;;;29.40;49.10;;;;;;5033369;28;20049;-71
2023/08/17 07:51:10;;;;;;;6.35;4.43;;;29.40;48.60;;;;;;5033174;28;20087;-71
2023/08/17 07:53:36;;;;;;;5.20;4.13;;;29.50;48.20;;;;;;5032927;28;20037;-71
2023/08/17 07:56:02;;;;;;;6.55;4.28;;;29.30;47.80;;;;;;5046078;28;20115;-71
2023/08/17 07:58:28;;;;;;;5.13;4.53;;;29.30;47.30;;;;;;5055560;28;20039;-71
2023/08/17 08:00:54;;;;;;;4.22;3.75;;;29.30;46.90;;;;;;5053208;28;20028;-71
2023/08/17 08:03:20;;;;;;;6.10;4.32;;;29.40;46.60;;;;;;5029885;28;20032;-70
2023/08/17 08:05:46;;;;;;;5.72;4.10;;;29.30;46.10;;;;;;5031594;28;20112;-71
2023/08/17 08:08:14;;;;;;;7.45;3.75;;;29.20;45.70;;;;;;5046942;28;20051;-71
2023/08/17 08:10:40;;;;;;;5.15;4.65;;;29.20;45.40;;;;;;5049557;28;20024;-71
2023/08/17 08:13:06;;;;;;;4.93;3.65;;;29.20;45.00;;;;;;5052928;28;20029;-71
2023/08/17 08:15:33;;;;;;;5.18;4.25;;;29.20;44.70;;;;;;5052306;28;20074;-71
2023/08/17 08:17:59;;;;;;;6.90;4.97;;;29.30;44.40;;;;;;5052277;28;20116;-70
2023/08/17 08:20:25;;;;;;;4.70;3.65;;;29.10;44.10;;;;;;5051615;28;20070;-70
2023/08/17 08:22:51;;;;;;;6.55;4.22;;;29.10;44.00;;;;;;5052620;28;20039;-72
2023/08/17 08:25:17;;;;;;;6.07;3.83;;;29.20;43.80;;;;;;5029793;28;20061;-71
2023/08/17 08:27:43;;;;;;;4.70;3.55;;;29.20;43.40;;;;;;5031248;28;20081;-71
2023/08/17 08:30:10;;;;;;;4.38;3.97;;;29.20;43.00;;;;;;5032161;28;20086;-71
2023/08/17 08:32:36;;;;;;;5.78;3.70;;;29.10;43.10;;;;;;5046549;28;20520;-70
2023/08/17 08:35:02;;;;;;;9.73;3.83;;;29.10;42.90;;;;;;5032293;28;20058;-71
2023/08/17 08:37:28;;;;;;;3.90;3.15;;;28.90;42.40;;;;;;5032273;28;20465;-71
2023/08/17 08:39:55;;;;;;;4.07;3.33;;;28.90;42.50;;;;;;5032217;28;20043;-71
2023/08/17 08:42:23;;;;;;;3.95;3.33;;;29.00;42.80;;;;;;5032096;28;20123;-71
2023/08/17 08:44:50;;;;;;;4.28;3.05;;;29.00;42.40;;;;;;5032185;28;20025;-71
2023/08/17 08:47:17;;;;;;;5.07;3.53;;;28.90;41.90;;;;;;5014132;28;20420;-69
2023/08/17 08:50:03;;;;;;;5.45;4.05;;;29.00;42.30;;;;;;5032151;28;20080;-70
2023/08/17 08:52:36;;;;;;;3.80;3.45;;;28.90;41.50;;;;;;5037110;28;20086;-71
2023/08/17 08:55:23;;;;;;;5.90;4.00;;;28.90;41.20;;;;;;5042922;28;20389;-71
2023/08/17 08:57:52;;;;;;;3.65;3.28;;;29.00;41.70;;;;;;5031796;28;20092;-71
2023/08/17 09:00:19;;;;;;;3.83;3.22;;;28.80;40.90;;;;;;5037901;28;20407;-71
2023/08/17 09:02:45;;;;;;;4.15;2.83;;;29.00;41.50;;;;;;5051687;28;20020;-71
2023/08/17 09:05:13;;;;;;;4.50;3.92;;;28.90;40.70;;;;;;5049251;28;20480;-70
2023/08/17 09:07:39;;;;;;;5.15;3.55;;;28.80;40.60;;;;;;5050198;28;20037;-71
2023/08/17 09:10:05;;;;;;;3.40;3.10;;;28.90;40.50;;;;;;5049794;28;20171;-71
2023/08/17 09:12:31;;;;;;;4.00;3.17;;;28.80;40.30;;;;;;5051244;28;20029;-71
2023/08/17 09:14:58;;;;;;;5.30;3.60;;;28.80;40.20;;;;;;5049835;28;20024;-71
2023/08/17 09:17:25;;;;;;;3.67;3.10;;;28.70;40.10;;;;;;5051541;28;20159;-71
2023/08/17 09:19:51;;;;;;;4.25;3.33;;;28.80;39.90;;;;;;5051550;28;20036;-71
2023/08/17 09:22:43;;;;;;;4.28;3.58;;;28.70;40.10;;;;;;5049314;28;20040;-70
2023/08/17 09:25:10;;;;;;;5.05;3.47;;;28.80;40.10;;;;;;5027596;28;20037;-71
2023/08/17 09:27:41;;;;;;;4.38;3.35;;;28.60;39.80;;;;;;5012258;28;20061;-71
2023/08/17 09:30:09;;;;;;;3.95;3.05;;;28.60;39.70;;;;;;5028102;28;20672;-71
2023/08/17 09:32:36;;;;;;;2.92;2.45;;;28.70;39.90;;;;;;5028811;28;20076;-71
2023/08/17 09:35:04;;;;;;;4.35;3.03;;;28.60;39.70;;;;;;5011053;28;20033;-71
2023/08/17 09:37:30;;;;;;;3.13;2.70;;;28.60;39.40;;;;;;4994258;28;20049;-70
2023/08/17 09:39:56;;;;;;;3.30;2.95;;;28.70;39.60;;;;;;5026422;28;20043;-71
2023/08/17 09:42:22;;;;;;;4.70;2.80;;;28.50;39.20;;;;;;5031230;28;20396;-72
2023/08/17 09:44:49;;;;;;;3.30;3.00;;;28.50;39.30;;;;;;5048473;28;20171;-70
2023/08/17 09:47:22;;;;;;;9.48;4.55;;;28.40;40.20;;;;;;5022488;28;20053;-71
2023/08/17 09:49:50;;;;;;;6.13;4.10;;;28.60;45.10;;;;;;5028407;28;20045;-75
2023/08/17 09:52:22;;;;;;;5.82;3.67;;;28.70;47.40;;;;;;5012289;28;20042;-74
2023/08/17 09:54:48;;;;;;;4.65;4.10;;;28.60;46.00;;;;;;5024028;28;20136;-75
2023/08/17 09:57:15;;;;;;;6.57;3.80;;;28.70;44.60;;;;;;5028508;28;20631;-74
2023/08/17 09:59:42;;;;;;;22.45;5.43;;;28.70;45.10;;;;;;5044372;28;20116;-74
2023/08/17 10:02:19;;;;;;;5.93;3.38;;;28.90;45.30;;;;;;5051944;28;20074;-74
2023/08/17 10:04:57;;;;;;;8.85;3.95;;;28.80;45.20;;;;;;5060922;28;20135;-75
2023/08/17 10:07:27;;;;;;;5.68;3.78;;;29.10;45.10;;;;;;5040904;28;20396;-73
2023/08/17 10:09:59;;;;;;;7.63;3.30;;;29.00;44.90;;;;;;5049429;28;20040;-75
2023/08/17 10:12:31;;;;;;;3.85;3.20;;;28.80;43.70;;;;;;5047101;28;20082;-81
2023/08/17 10:15:07;;;;;;;5.82;3.03;;;28.80;43.60;;;;;;5033020;28;20053;-71
2023/08/17 10:17:43;;;;;;;4.28;3.05;;;28.80;43.50;;;;;;5038492;28;20044;-75
2023/08/17 10:20:10;;;;;;;5.78;3.72;;;29.00;44.10;;;;;;5040033;28;20116;-76
2023/08/17 10:22:44;;;;;;;3.97;3.17;;;28.90;45.40;;;;;;5041109;28;20021;-74
2023/08/17 10:25:13;;;;;;;46.00;13.77;;;28.90;45.10;;;;;;5036735;28;20397;-75
2023/08/17 10:27:41;;;;;;;4.82;3.10;;;28.90;45.30;;;;;;5037287;28;21733;-75
2023/08/17 10:30:11;;;;;;;4.97;3.25;;;29.00;44.80;;;;;;5049970;28;20043;-74
2023/08/17 10:32:38;;;;;;;5.22;3.00;;;29.20;44.30;;;;;;5056072;28;20069;-74
2023/08/17 10:35:06;;;;;;;4.85;3.70;;;29.00;45.00;;;;;;5058778;28;20111;-73
2023/08/17 10:37:32;;;;;;;3.67;2.97;;;29.10;44.40;;;;;;5058445;28;20064;-74
2023/08/17 10:39:58;;;;;;;3.75;3.20;;;29.20;44.70;;;;;;5038461;28;20119;-75
2023/08/17 10:42:35;;;;;;;3.75;3.10;;;29.10;44.10;;;;;;5045260;28;20721;-74
2023/08/17 10:45:25;;;;;;;3.10;2.78;;;29.10;43.20;;;;;;5052938;28;20086;-73
2023/08/17 10:48:20;;;;;;;3.60;3.10;;;29.10;43.30;;;;;;5051309;28;20049;-74
2023/08/17 10:51:03;;;;;;;3.58;2.97;;;29.00;43.50;;;;;;4972750;28;20475;-74
2023/08/17 10:53:35;;;;;;;3.60;3.05;;;29.30;46.40;;;;;;4959225;28;20053;-74
2023/08/17 10:56:06;;;;;;;4.57;2.78;;;29.20;45.30;;;;;;4967025;28;20054;-79
2023/08/17 10:58:33;;;;;;;4.25;3.10;;;29.40;45.60;;;;;;4966212;28;20447;-75
2023/08/17 11:01:00;;;;;;;5.22;2.70;;;29.30;49.20;;;;;;4950263;28;20038;-75
2023/08/17 11:03:27;;;;;;;3.25;2.95;;;29.30;51.10;;;;;;4972651;28;20431;-75
2023/08/17 11:05:58;;;;;;;3.10;2.45;;;29.50;51.20;;;;;;4967374;28;20054;-75
2023/08/17 11:08:40;;;;;;;3.17;2.88;;;29.70;51.20;;;;;;4956288;28;20063;-75
2023/08/17 11:11:10;;;;;;;3.22;2.92;;;29.60;51.10;;;;;;4952741;29;20051;-75
2023/08/17 11:13:38;;;;;;;4.32;2.72;;;29.70;51.10;;;;;;4941788;29;20070;-75
2023/08/17 11:16:05;;;;;;;2.03;1.85;;;29.90;50.50;;;;;;4967369;28;20187;-73
2023/08/17 11:18:32;;;;;;;2.47;2.28;;;29.60;47.40;;;;;;4952724;28;20047;-74
2023/08/17 11:21:00;;;;;;;4.03;2.10;;;29.70;46.00;;;;;;4952859;28;20594;-73
2023/08/17 11:23:29;;;;;;;2.03;1.80;;;29.70;44.60;;;;;;4958208;28;20588;-74
2023/08/17 11:25:55;;;;;;;4.97;2.13;;;29.70;43.80;;;;;;4971270;28;20043;-75
2023/08/17 11:28:22;;;;;;;2.28;2.08;;;29.70;43.40;;;;;;5039078;28;20051;-74
2023/08/17 11:31:03;;;;;;;2.65;1.88;;;29.60;43.00;;;;;;5060837;28;20025;-74
2023/08/17 11:33:32;;;;;;;2.00;1.90;;;29.60;42.90;;;;;;5050925;28;20117;-74
2023/08/17 11:35:59;;;;;;;3.45;2.35;;;29.60;42.50;;;;;;5051864;28;20021;-75
2023/08/17 11:38:26;;;;;;;2.58;2.35;;;29.60;42.20;;;;;;5069016;28;20491;-74
2023/08/17 11:40:52;;;;;;;2.60;2.40;;;29.50;42.00;;;;;;5034654;28;20408;-73
2023/08/17 11:43:20;;;;;;;2.38;2.08;;;29.60;41.80;;;;;;5048355;28;20032;-74
2023/08/17 11:45:46;;;;;;;5.07;1.90;;;29.50;41.50;;;;;;5049265;28;20037;-72
2023/08/17 11:48:12;;;;;;;2.10;1.90;;;29.50;41.50;;;;;;5045455;28;20461;-75
2023/08/17 11:50:41;;;;;;;3.70;2.20;;;29.40;41.60;;;;;;5057539;28;20036;-73
2023/08/17 11:53:07;;;;;;;2.25;1.80;;;29.40;41.30;;;;;;5055699;28;20031;-73
2023/08/17 11:55:33;;;;;;;2.15;1.77;;;29.30;41.70;;;;;;5056811;28;20047;-72
2023/08/17 11:58:01;;;;;;;1.80;1.70;;;29.30;41.90;;;;;;5059043;28;20032;-72
2023/08/17 12:00:27;;;;;;;2.05;1.80;;;29.20;42.20;;;;;;5053651;28;20040;-72
2023/08/17 12:02:53;;;;;;;1.80;1.70;;;29.30;42.30;;;;;;5048314;28;20037;-73
2023/08/17 12:05:23;;;;;;;1.80;1.60;;;29.30;42.30;;;;;;5059300;28;20040;-72
2023/08/17 12:07:50;;;;;;;1.38;1.27;;;29.20;42.40;;;;;;5053337;28;20040;-71
2023/08/17 12:10:19;;;;;;;3.15;1.58;;;29.20;42.50;;;;;;5055665;28;20704;-71
2023/08/17 12:12:47;;;;;;;1.60;1.50;;;29.30;42.50;;;;;;5057168;28;20032;-72
2023/08/17 12:15:15;;;;;;;2.17;1.27;;;29.30;42.60;;;;;;5050052;28;20044;-71
2023/08/17 12:17:48;;;;;;;1.40;1.27;;;29.30;42.60;;;;;;5030169;28;20084;-72
2023/08/17 12:20:21;;;;;;;1.13;1.13;;;29.20;42.80;;;;;;5049623;28;20485;-73
2023/08/17 12:22:47;;;;;;;1.67;1.10;;;29.40;42.90;;;;;;5046387;28;20038;-72
2023/08/17 12:25:14;;;;;;;1.85;1.30;;;29.30;43.10;;;;;;5020827;28;20045;-74
2023/08/17 12:27:40;;;;;;;1.77;1.17;;;29.30;43.40;;;;;;5029613;28;20167;-72
2023/08/17 12:30:35;;;;;;;1.25;1.15;;;29.30;43.50;;;;;;5029757;28;20041;-73
2023/08/17 12:33:01;;;;;;;0.88;0.88;;;29.40;43.80;;;;;;5028855;28;20461;-72
2023/08/17 12:35:27;;;;;;;1.20;1.10;;;29.10;43.80;;;;;;5029702;28;20045;-71
2023/08/17 12:37:54;;;;;;;2.63;1.23;;;29.20;43.90;;;;;;5012006;28;20121;-73
2023/08/17 12:40:21;;;;;;;0.90;0.90;;;29.20;44.10;;;;;;5029529;28;20586;-72
2023/08/17 12:42:47;;;;;;;2.10;1.60;;;29.10;44.20;;;;;;5029837;28;20481;-73
2023/08/17 12:45:15;;;;;;;1.45;1.17;;;29.10;44.40;;;;;;5012841;28;20048;-73